createdAt,value
2022-08-07T00:01:43.311Z,60.10
2022-08-07T00:04:26.139Z,60.10
2022-08-07T00:07:40.207Z,60.70
2022-08-07T00:10:47.657Z,61.40
2022-08-07T00:13:51.465Z,60.50
2022-08-07T00:16:54.575Z,61.40
2022-08-07T00:20:01.318Z,60.60
2022-08-07T00:23:08.146Z,60.70
2022-08-07T00:26:31.234Z,60.60
2022-08-07T00:29:37.054Z,60.70
2022-08-07T00:32:40.370Z,60.70
2022-08-07T00:35:49.731Z,60.40
2022-08-07T00:38:52.921Z,61.00
2022-08-07T00:42:02.444Z,60.80
2022-08-07T00:45:10.971Z,61.60
2022-08-07T00:48:25.112Z,61.10
2022-08-07T00:51:58.696Z,62.10
2022-08-07T00:55:04.784Z,61.40
2022-08-07T00:58:14.309Z,61.30
2022-08-07T01:01:18.737Z,61.30
2022-08-07T01:04:24.918Z,61.40
2022-08-07T01:07:30.970Z,61.40
2022-08-07T01:10:34.960Z,61.40
2022-08-07T01:13:38.233Z,61.20
2022-08-07T01:16:42.992Z,61.10
2022-08-07T01:19:52.397Z,61.10
2022-08-07T01:23:12.322Z,60.70
2022-08-07T01:26:20.722Z,61.50
2022-08-07T01:29:27.956Z,61.30
2022-08-07T01:32:35.162Z,62.30
2022-08-07T01:35:53.368Z,61.60
2022-08-07T01:38:59.101Z,61.60
2022-08-07T01:42:38.841Z,60.90
2022-08-07T01:45:37.188Z,61.40
2022-08-07T01:48:46.696Z,61.50
2022-08-07T01:52:01.987Z,61.60
2022-08-07T01:55:22.342Z,61.80
2022-08-07T01:58:37.501Z,62.10
2022-08-07T02:01:59.791Z,62.40
2022-08-07T02:05:16.142Z,62.70
2022-08-07T02:08:40.493Z,62.10
2022-08-07T02:12:03.682Z,62.30
2022-08-07T02:15:09.632Z,62.40
2022-08-07T02:18:16.298Z,62.30
2022-08-07T02:21:22.574Z,62.60
2022-08-07T02:24:29.351Z,62.60
2022-08-07T02:27:37.092Z,62.80
2022-08-07T02:30:45.881Z,63.30
2022-08-07T02:34:02.924Z,62.80
2022-08-07T02:37:09.168Z,62.90
2022-08-07T02:40:30.695Z,63.00
2022-08-07T02:43:42.312Z,62.80
2022-08-07T02:46:54.895Z,63.00
2022-08-07T02:50:00.179Z,62.90
2022-08-07T02:53:10.785Z,62.90
2022-08-07T02:56:21.692Z,63.20
2022-08-07T02:59:30.785Z,63.20
2022-08-07T03:02:37.988Z,63.60
2022-08-07T03:05:58.663Z,63.30
2022-08-07T03:09:02.782Z,63.30
2022-08-07T03:12:11.528Z,63.50
2022-08-07T03:15:47.527Z,63.40
2022-08-07T03:18:53.081Z,63.70
2022-08-07T03:21:59.675Z,64.40
2022-08-07T03:25:03.715Z,63.60
2022-08-07T03:28:38.311Z,63.60
2022-08-07T03:31:43.200Z,64.20
2022-08-07T03:35:00.834Z,63.90
2022-08-07T03:38:17.359Z,63.90
2022-08-07T03:41:42.126Z,64.00
2022-08-07T03:44:53.639Z,64.00
2022-08-07T03:48:03.321Z,64.50
2022-08-07T03:51:10.188Z,63.80
2022-08-07T03:54:35.624Z,63.90
2022-08-07T03:59:04.982Z,64.00
2022-08-07T04:01:04.465Z,64.00
2022-08-07T04:04:17.259Z,64.70
2022-08-07T04:07:22.909Z,64.20
2022-08-07T04:10:26.363Z,64.10
2022-08-07T04:14:09.381Z,64.20
2022-08-07T04:16:58.906Z,64.40
2022-08-07T04:20:12.656Z,64.40
2022-08-07T04:23:19.690Z,64.70
2022-08-07T04:26:22.781Z,65.10
2022-08-07T04:29:30.463Z,64.50
2022-08-07T04:32:58.616Z,64.90
2022-08-07T04:36:06.391Z,64.70
2022-08-07T04:39:10.821Z,64.90
2022-08-07T04:42:18.755Z,64.80
2022-08-07T04:45:57.628Z,65.20
2022-08-07T04:49:07.521Z,65.60
2022-08-07T04:52:35.285Z,64.60
2022-08-07T04:58:14.420Z,64.50
2022-08-07T05:00:09.694Z,64.30
2022-08-07T05:02:58.382Z,64.10
2022-08-07T05:06:19.528Z,64.10
2022-08-07T05:09:43.421Z,63.90
2022-08-07T05:13:01.569Z,63.90
2022-08-07T05:16:23.258Z,63.70
2022-08-07T05:19:44.082Z,63.30
2022-08-07T05:22:51.315Z,63.10
2022-08-07T05:26:15.685Z,62.90
2022-08-07T05:29:25.066Z,62.70
2022-08-07T05:32:47.011Z,62.40
2022-08-07T05:35:55.221Z,62.30
2022-08-07T05:40:07.140Z,62.10
2022-08-07T05:42:33.401Z,62.60
2022-08-07T05:45:47.378Z,62.30
2022-08-07T05:48:58.582Z,62.50
2022-08-07T05:52:04.631Z,62.90
2022-08-07T05:55:10.796Z,63.20
2022-08-07T05:58:22.072Z,63.80
2022-08-07T06:01:43.586Z,64.40
2022-08-07T06:04:56.234Z,65.20
2022-08-07T06:08:13.682Z,65.60
2022-08-07T06:11:25.220Z,65.20
2022-08-07T06:14:30.595Z,64.10
2022-08-07T06:17:38.248Z,63.00
2022-08-07T06:20:50.462Z,62.30
2022-08-07T06:24:38.780Z,60.80
2022-08-07T06:27:59.579Z,61.00
2022-08-07T06:31:01.366Z,60.60
2022-08-07T06:34:07.120Z,60.00
2022-08-07T06:37:12.076Z,59.90
2022-08-07T06:40:21.179Z,59.60
2022-08-07T06:43:27.485Z,59.50
2022-08-07T06:46:44.337Z,59.50
2022-08-07T06:49:58.844Z,59.40
2022-08-07T06:53:04.601Z,59.40
2022-08-07T06:56:15.434Z,59.70
2022-08-07T07:00:16.975Z,59.50
2022-08-07T07:02:57.764Z,59.70
2022-08-07T07:06:06.197Z,59.20
2022-08-07T07:09:23.633Z,60.00
2022-08-07T07:12:48.496Z,60.10
2022-08-07T07:16:03.031Z,60.30
2022-08-07T07:19:33.805Z,59.80
2022-08-07T07:22:39.778Z,60.20
2022-08-07T07:26:33.237Z,59.50
2022-08-07T07:29:55.757Z,58.60
2022-08-07T07:32:58.864Z,57.40
2022-08-07T07:36:13.557Z,56.10
2022-08-07T07:39:22.790Z,55.50
2022-08-07T07:42:32.591Z,55.40
2022-08-07T07:46:53.589Z,54.90
2022-08-07T07:49:08.868Z,54.80
2022-08-07T07:52:31.812Z,54.40
2022-08-07T07:55:37.783Z,53.70
2022-08-07T07:58:50.758Z,53.40
2022-08-07T08:02:02.263Z,53.60
2022-08-07T08:05:14.171Z,53.70
2022-08-07T08:08:35.448Z,53.60
2022-08-07T08:11:47.341Z,54.50
2022-08-07T08:15:06.978Z,54.30
2022-08-07T08:18:17.171Z,54.90
2022-08-07T08:22:00.735Z,55.60
2022-08-07T08:25:41.782Z,56.10
2022-08-07T08:28:49.398Z,57.20
2022-08-07T08:32:17.186Z,57.80
2022-08-07T08:35:25.239Z,58.00
2022-08-07T08:38:41.066Z,59.00
2022-08-07T08:41:58.547Z,58.00
2022-08-07T08:45:15.360Z,57.60
2022-08-07T08:48:35.970Z,56.70
2022-08-07T08:52:13.909Z,56.40
2022-08-07T08:55:53.721Z,55.10
2022-08-07T08:59:13.755Z,54.00
2022-08-07T09:02:35.266Z,53.90
2022-08-07T09:05:54.087Z,52.90
2022-08-07T09:09:09.680Z,51.00
2022-08-07T09:12:53.106Z,51.30
2022-08-07T09:16:25.160Z,50.20
2022-08-07T09:19:55.250Z,50.40
2022-08-07T09:24:30.375Z,49.90
2022-08-07T09:26:57.157Z,49.90
2022-08-07T09:30:09.004Z,50.00
2022-08-07T09:33:52.994Z,49.50
2022-08-07T09:37:07.066Z,48.80
2022-08-07T09:40:24.859Z,49.10
2022-08-07T09:44:05.320Z,48.40
2022-08-07T09:47:57.724Z,48.20
2022-08-07T09:51:01.791Z,49.30
2022-08-07T09:54:16.394Z,47.80
2022-08-07T09:58:15.003Z,48.20
2022-08-07T10:01:50.997Z,48.50
2022-08-07T10:06:00.096Z,48.40
2022-08-07T10:09:23.702Z,48.10
2022-08-07T10:13:55.361Z,48.60
2022-08-07T10:17:14.184Z,49.40
2022-08-07T10:20:35.981Z,50.00
2022-08-07T10:24:33.389Z,50.60
2022-08-07T10:28:23.530Z,50.60
2022-08-07T10:31:51.514Z,50.20
2022-08-07T10:35:15.051Z,50.60
2022-08-07T10:38:50.186Z,51.00
2022-08-07T10:42:20.990Z,50.70
2022-08-07T10:45:48.095Z,50.90
2022-08-07T10:49:10.155Z,51.10
2022-08-07T10:52:31.915Z,51.30
2022-08-07T10:55:50.257Z,51.90
2022-08-07T10:59:21.108Z,52.50
2022-08-07T11:02:37.928Z,52.30
2022-08-07T11:05:52.872Z,52.90
2022-08-07T11:09:11.382Z,53.60
2022-08-07T11:12:32.227Z,53.60
2022-08-07T11:15:54.503Z,53.60
2022-08-07T11:19:08.280Z,53.90
2022-08-07T11:22:33.333Z,53.70
2022-08-07T11:25:55.518Z,53.90
2022-08-07T11:29:40.774Z,54.70
2022-08-07T11:32:52.910Z,54.40
2022-08-07T11:36:14.414Z,54.50
2022-08-07T11:39:59.780Z,54.10
2022-08-07T11:43:16.267Z,53.70
2022-08-07T11:46:51.011Z,53.00
2022-08-07T11:50:30.696Z,52.50
2022-08-07T11:54:00.857Z,53.00
2022-08-07T11:57:50.972Z,52.90
2022-08-07T12:01:05.171Z,52.60
2022-08-07T12:04:35.207Z,52.20
2022-08-07T12:07:53.385Z,52.20
2022-08-07T12:11:20.661Z,51.10
2022-08-07T12:14:31.692Z,49.50
2022-08-07T12:17:59.507Z,48.60
2022-08-07T12:21:55.773Z,47.60
2022-08-07T12:26:03.214Z,47.10
2022-08-07T12:29:00.689Z,47.00
2022-08-07T12:32:15.328Z,46.90
2022-08-07T12:35:20.905Z,47.00
2022-08-07T12:38:42.885Z,47.00
2022-08-07T12:41:51.881Z,47.00
2022-08-07T12:44:59.067Z,46.80
2022-08-07T12:48:28.248Z,46.80
2022-08-07T12:51:52.726Z,46.60
2022-08-07T12:55:24.897Z,47.50
2022-08-07T12:58:53.007Z,47.60
2022-08-07T13:02:18.617Z,47.80
2022-08-07T13:06:02.459Z,47.80
2022-08-07T13:10:17.749Z,49.30
2022-08-07T13:13:03.422Z,49.00
2022-08-07T13:16:18.265Z,50.60
2022-08-07T13:19:50.740Z,51.20
2022-08-07T13:23:09.826Z,52.20
2022-08-07T13:26:41.773Z,52.60
2022-08-07T13:29:59.693Z,52.40
2022-08-07T13:34:33.578Z,52.70
2022-08-07T13:36:46.301Z,52.70
2022-08-07T13:40:35.388Z,52.70
2022-08-07T13:43:34.361Z,52.70
2022-08-07T13:46:49.653Z,52.90
2022-08-07T13:50:33.343Z,53.20
2022-08-07T13:53:35.920Z,53.30
2022-08-07T13:56:59.625Z,53.90
2022-08-07T14:00:06.957Z,53.40
2022-08-07T14:03:10.865Z,53.60
2022-08-07T14:06:33.626Z,54.10
2022-08-07T14:10:12.111Z,54.20
2022-08-07T14:13:06.726Z,53.30
2022-08-07T14:16:33.430Z,52.90
2022-08-07T14:20:41.675Z,52.10
2022-08-07T14:23:18.012Z,51.80
2022-08-07T14:26:50.619Z,51.40
2022-08-07T14:30:04.954Z,50.90
2022-08-07T14:33:15.834Z,50.80
2022-08-07T14:36:28.214Z,50.50
2022-08-07T14:43:55.204Z,49.30
2022-08-07T14:46:33.423Z,50.10
2022-08-07T14:49:56.735Z,49.80
2022-08-07T14:53:07.605Z,49.50
2022-08-07T14:56:15.226Z,49.20
2022-08-07T15:03:18.976Z,48.80
2022-08-07T15:06:26.489Z,48.80
2022-08-07T15:13:05.540Z,49.60
2022-08-07T15:16:16.969Z,49.50
2022-08-07T15:20:30.822Z,49.70
2022-08-07T15:22:55.653Z,49.60
2022-08-07T15:26:02.064Z,49.70
2022-08-07T15:30:06.372Z,50.10
2022-08-07T15:36:01.329Z,49.80
2022-08-07T15:42:56.013Z,49.90
2022-08-07T15:46:31.140Z,49.60
2022-08-07T15:50:04.952Z,49.50
2022-08-07T15:53:09.156Z,49.40
2022-08-07T15:56:14.064Z,48.50
2022-08-07T15:59:20.287Z,48.30
2022-08-07T16:02:49.115Z,48.50
2022-08-07T16:05:55.507Z,47.80
2022-08-07T16:09:07.822Z,47.70
2022-08-07T16:12:31.614Z,47.60
2022-08-07T16:15:57.575Z,48.30
2022-08-07T16:19:42.781Z,47.50
2022-08-07T16:23:54.046Z,46.70
2022-08-07T16:27:18.089Z,45.90
2022-08-07T16:30:31.509Z,46.60
2022-08-07T16:34:02.318Z,46.60
2022-08-07T16:38:11.427Z,46.20
2022-08-07T16:41:55.343Z,46.10
2022-08-07T16:46:40.365Z,45.70
2022-08-07T16:50:27.148Z,47.10
2022-08-07T16:54:06.250Z,47.20
2022-08-07T16:58:03.010Z,49.40
2022-08-07T17:01:35.079Z,50.10
2022-08-07T17:05:06.394Z,51.00
2022-08-07T17:08:12.259Z,51.10
2022-08-07T17:12:04.999Z,50.90
2022-08-07T17:15:05.787Z,51.80
2022-08-07T17:18:19.263Z,51.90
2022-08-07T17:21:28.861Z,52.10
2022-08-07T17:25:10.965Z,52.20
2022-08-07T17:28:22.172Z,52.90
2022-08-07T17:32:03.268Z,52.50
2022-08-07T17:35:49.931Z,53.10
2022-08-07T17:38:55.902Z,53.20
2022-08-07T17:42:06.719Z,53.40
2022-08-07T17:45:18.998Z,53.30
2022-08-07T17:48:34.583Z,53.40
2022-08-07T17:51:59.824Z,53.80
2022-08-07T17:55:13.860Z,53.60
2022-08-07T17:58:31.439Z,55.30
2022-08-07T18:01:48.726Z,54.00
2022-08-07T18:05:20.792Z,54.60
2022-08-07T18:08:32.527Z,54.90
2022-08-07T18:12:16.539Z,54.80
2022-08-07T18:15:12.305Z,54.80
2022-08-07T18:18:47.599Z,54.70
2022-08-07T18:21:57.895Z,54.90
2022-08-07T18:25:24.221Z,54.70
2022-08-07T18:28:57.873Z,54.70
2022-08-07T18:32:25.227Z,54.80
2022-08-07T18:35:51.642Z,55.00
2022-08-07T18:40:08.481Z,54.90
2022-08-07T18:42:50.414Z,54.90
2022-08-07T18:46:25.593Z,55.00
2022-08-07T18:50:31.271Z,54.90
2022-08-07T18:53:36.626Z,55.20
2022-08-07T18:57:23.362Z,55.30
2022-08-07T19:00:33.520Z,55.40
2022-08-07T19:03:52.131Z,55.00
2022-08-07T19:07:02.313Z,55.10
2022-08-07T19:10:21.605Z,55.10
2022-08-07T19:13:38.520Z,55.00
2022-08-07T19:17:05.761Z,54.80
2022-08-07T19:20:28.731Z,55.10
2022-08-07T19:23:57.302Z,55.00
2022-08-07T19:28:57.234Z,55.50
2022-08-07T19:31:01.705Z,55.10
2022-08-07T19:34:03.559Z,55.10
2022-08-07T19:37:17.358Z,55.20
2022-08-07T19:40:31.570Z,55.30
2022-08-07T19:43:51.906Z,55.60
2022-08-07T19:47:10.754Z,56.10
2022-08-07T19:50:40.815Z,56.80
2022-08-07T19:54:33.820Z,56.80
2022-08-07T19:58:03.554Z,56.90
2022-08-07T20:00:29.820Z,57.50
2022-08-07T20:03:37.617Z,57.40
2022-08-07T20:06:43.077Z,57.70
2022-08-07T20:10:36.577Z,57.80
2022-08-07T20:13:23.167Z,58.10
2022-08-07T20:16:34.773Z,58.30
2022-08-07T20:20:10.707Z,59.30
2022-08-07T20:23:40.615Z,59.50
2022-08-07T20:26:49.968Z,58.50
2022-08-07T20:30:22.894Z,59.40
2022-08-07T20:33:37.621Z,60.00
2022-08-07T20:36:51.696Z,59.00
2022-08-07T20:40:02.340Z,59.50
2022-08-07T20:43:16.904Z,59.20
2022-08-07T20:46:31.352Z,59.20
2022-08-07T20:49:59.076Z,59.80
2022-08-07T20:53:06.958Z,59.80
2022-08-07T20:56:12.187Z,60.00
2022-08-07T21:00:05.089Z,60.30
2022-08-07T21:03:01.794Z,60.30
2022-08-07T21:06:22.299Z,60.20
2022-08-07T21:09:51.739Z,60.10
2022-08-07T21:13:00.599Z,60.50
2022-08-07T21:16:06.651Z,60.50
2022-08-07T21:19:14.021Z,60.50
2022-08-07T21:22:19.769Z,60.80
2022-08-07T21:25:56.104Z,61.00
2022-08-07T21:29:15.763Z,61.80
2022-08-07T21:32:46.585Z,61.40
2022-08-07T21:36:06.763Z,61.60
2022-08-07T21:39:46.469Z,62.40
2022-08-07T21:43:47.431Z,62.30
2022-08-07T21:47:07.360Z,62.90
2022-08-07T21:50:24.610Z,62.80
2022-08-07T21:53:52.681Z,63.00
2022-08-07T21:57:39.510Z,63.20
2022-08-07T22:00:50.183Z,63.90
2022-08-07T22:04:02.693Z,62.90
2022-08-07T22:07:15.542Z,62.70
2022-08-07T22:10:26.157Z,62.90
2022-08-07T22:13:52.990Z,63.40
2022-08-07T22:17:01.775Z,63.30
2022-08-07T22:20:23.581Z,64.60
2022-08-07T22:23:44.997Z,64.40
2022-08-07T22:26:57.484Z,64.30
2022-08-07T22:30:12.502Z,64.30
2022-08-07T22:33:56.002Z,64.80
2022-08-07T22:36:59.649Z,65.10
2022-08-07T22:40:16.128Z,65.40
2022-08-07T22:43:34.050Z,64.80
2022-08-07T22:47:42.869Z,65.00
2022-08-07T22:51:22.786Z,65.80
2022-08-07T22:54:52.985Z,65.80
2022-08-07T22:58:47.980Z,65.60
2022-08-07T23:02:08.340Z,65.90
2022-08-07T23:06:08.567Z,65.70
2022-08-07T23:10:05.913Z,66.40
2022-08-07T23:14:10.917Z,66.50
2022-08-07T23:17:41.540Z,66.70
2022-08-07T23:21:16.214Z,66.70
2022-08-07T23:24:45.490Z,67.10
2022-08-07T23:28:30.445Z,68.30
2022-08-07T23:34:23.333Z,67.50
2022-08-07T23:35:22.640Z,66.50
2022-08-07T23:38:46.884Z,66.10
2022-08-07T23:42:22.029Z,66.50
2022-08-07T23:46:01.957Z,66.90
2022-08-07T23:49:50.726Z,67.00
2022-08-07T23:53:08.596Z,67.10
2022-08-07T23:56:22.734Z,66.60
